Flight Track Log - Related Links

Times and Time Zones

All times are in EDT time to prevent confusion due to time zone crossing. See the KFS20 flight status page for this flight to view local times or setup timezone preferences in your user account.

Time Position Orientation Groundspeed Altitude Reporting Facility
EDT Latitude Longitude Course Direction KTS MPH feet Rate Location/Type
Sat 04:08:10 PM 34.2631 -83.5989 355° North 188 216 3,700  Level Atlanta Center
Sat 04:09:10 PM 34.3089 -83.6036 355° North 201 231 5,300 1,700 Climbing Atlanta Center
Sat 04:10:10 PM 34.3633 -83.6083 356° North 206 237 7,100 1,750 Climbing Atlanta Center
Sat 04:11:10 PM 34.4175 -83.6183 351° North 193 222 8,800 950 Climbing Atlanta Center
Sat 04:12:10 PM 34.4781 -83.6206 358° North 209 241 9,000 100 Climbing Atlanta Center
Sat 04:13:10 PM 34.5386 -83.6378 347° North 222 255 9,000 650 Level Atlanta Center
Sat 04:14:10 PM 34.5950 -83.6578 344° North 222 255 10,300 1,450 Climbing Atlanta Center
Sat 04:15:10 PM 34.6494 -83.6803 341° North 212 244 11,900 1,450 Climbing Atlanta Center
Sat 04:16:10 PM 34.7017 -83.6978 345° North 202 232 13,200 1,250 Climbing Atlanta Center
Sat 04:17:10 PM 34.7497 -83.7153 343° North 190 219 14,400 1,100 Climbing Atlanta Center
Sat 04:18:10 PM 34.7997 -83.7378 340° North 195 224 15,400 1,100 Climbing Atlanta Center
Sat 04:19:10 PM 34.8519 -83.7578 343° North 190 219 16,600 1,200 Climbing Atlanta Center
Sat 04:20:10 PM 34.9064 -83.7728 347° North 196 226 17,800 1,200 Climbing Atlanta Center
Sat 04:21:10 PM 34.9669 -83.7931 345° North 201 231 19,000 1,150 Climbing Atlanta Center
Sat 04:22:10 PM 35.0233 -83.8081 348° North 201 231 20,100 3,000 Climbing Atlanta Center
Sat 04:23:10 PM 35.0817 -83.8128 356° North 206 237 25,000 1,100 Climbing Atlanta Center
Sat 04:24:10 PM 35.1358 -83.8178 356° North 200 230 22,300 -850 Descending Atlanta Center
Sat 04:25:10 PM 35.1903 -83.8228 356° North 200 230 23,300 800 Climbing Atlanta Center
Sat 04:26:10 PM 35.2425 -83.8253 358° North 200 230 23,900 350 Climbing Atlanta Center
Sat 04:27:10 PM 35.2967 -83.8328 354° North 200 230 24,000  Climbing Atlanta Center
Sat 04:28:10 PM 35.3550 -83.8375 356° North 200 230 23,900  Descending Atlanta Center
Sat 04:29:10 PM 35.4219 -83.8425 357° North 214 246 24,000 50 Climbing Atlanta Center
Sat 04:30:10 PM 35.4886 -83.8450 358° North 232 267 24,000  Level Atlanta Center
Sat 04:31:10 PM 35.5575 -83.8472 358° North 237 273 24,000  Level Atlanta Center
Sat 04:32:10 PM 35.6283 -83.8547 355° North 237 273 24,000  Level Atlanta Center
Sat 04:33:10 PM 35.6994 -83.8572 358° North 242 278 24,000  Level Atlanta Center
Sat 04:34:10 PM 35.7725 -83.8569 360° North 253 291 24,000  Level Atlanta Center
Sat 04:35:10 PM 35.8453 -83.8594 358° North 253 291 24,000  Level Atlanta Center
Sat 04:36:10 PM 35.9183 -83.8567 North 253 291 24,000  Level Atlanta Center
Sat 04:37:10 PM 35.9914 -83.8642 355° North 253 291 24,000  Level Atlanta Center
Sat 04:38:10 PM 36.0686 -83.8614 North 253 291 24,000  Level Atlanta Center
Sat 04:39:10 PM 36.1458 -83.8561 North 259 298 24,000  Level Atlanta Center
Sat 04:40:10 PM 36.2186 -83.8508 North 259 298 24,000  Level Atlanta Center
Sat 04:42:01 PM 36.3514 -83.8458 North 265 305 24,000  Level Indianapolis Center
Sat 04:43:02 PM 36.4264 -83.8414 North 268 308 24,000 -49 Level Indianapolis Center
Sat 04:44:03 PM 36.5000 -83.8350 North 267 307 23,900  Descending Indianapolis Center
Sat 04:45:05 PM 36.5756 -83.8353 360° North 265 305 24,000 49 Climbing Indianapolis Center
Sat 04:46:06 PM 36.6469 -83.8439 354° North 256 295 24,000 -49 Level Indianapolis Center
Sat 04:47:07 PM 36.7328 -83.8511 356° North 262 302 23,900 -49 Descending Indianapolis Center
Sat 04:48:09 PM 36.8058 -83.8625 353° North 263 303 23,900 49 Level Indianapolis Center
Sat 04:49:10 PM 36.8772 -83.8733 353° North 259 298 24,000 -148 Climbing Indianapolis Center
Sat 04:50:11 PM 36.9497 -83.8844 353° North 261 300 23,600 -541 Descending Indianapolis Center
Sat 04:51:12 PM 37.0250 -83.9031 349° North 272 313 22,900 -732 Descending Indianapolis Center
Sat 04:52:14 PM 37.1025 -83.9256 347° North 281 323 22,100 -439 Descending Indianapolis Center
Sat 04:53:15 PM 37.1794 -83.9442 349° North 281 323 22,000 -49 Descending Indianapolis Center
Sat 04:54:16 PM 37.2547 -83.9617 350° North 273 314 22,000  Level Indianapolis Center
Sat 04:55:18 PM 37.3294 -83.9758 351° North 269 310 22,000  Level Indianapolis Center
Sat 04:56:19 PM 37.4058 -83.9844 355° North 271 312 22,000  Level Indianapolis Center
Sat 04:57:20 PM 37.4903 -84.0006 351° North 262 302 22,000  Level Indianapolis Center
Sat 04:58:22 PM 37.5658 -84.0128 353° North 269 310 22,000  Level Indianapolis Center
Sat 04:59:23 PM 37.6403 -84.0256 352° North 269 310 22,000  Level Indianapolis Center
Sat 05:00:24 PM 37.7142 -84.0375 353° North 267 307 22,000  Level Indianapolis Center
Sat 05:01:26 PM 37.7897 -84.0472 354° North 270 311 22,000  Level Indianapolis Center
Sat 05:02:27 PM 37.8628 -84.0608 352° North 265 305 22,000  Level Indianapolis Center
Sat 05:03:28 PM 37.9375 -84.0692 355° North 268 308 22,000  Level Indianapolis Center
Sat 05:04:29 PM 38.0117 -84.0822 352° North 268 308 22,000  Level Indianapolis Center
Sat 05:05:31 PM 38.0858 -84.0900 355° North 266 306 22,000  Level Indianapolis Center
Sat 05:06:32 PM 38.1611 -84.0978 355° North 271 312 22,000  Level Indianapolis Center
Sat 05:07:33 PM 38.2472 -84.1128 352° North 266 306 22,000  Level Indianapolis Center
Sat 05:08:35 PM 38.3211 -84.1233 354° North 265 305 22,000  Level Indianapolis Center
Sat 05:09:36 PM 38.3950 -84.1336 354° North 265 305 22,000  Level Indianapolis Center
Sat 05:10:37 PM 38.4672 -84.1500 350° North 264 304 22,000  Level Indianapolis Center
Sat 05:11:39 PM 38.5414 -84.1600 354° North 268 308 22,000  Level Indianapolis Center
Sat 05:12:40 PM 38.6167 -84.1725 353° North 269 310 22,000  Level Indianapolis Center
Sat 05:13:41 PM 38.6881 -84.1847 352° North 268 308 22,000 -49 Level Indianapolis Center
Sat 05:14:43 PM 38.7639 -84.1950 354° North 271 312 21,900 -49 Descending Indianapolis Center
Sat 05:15:44 PM 38.8378 -84.2097 351° North 268 308 21,900 49 Level Indianapolis Center
Sat 05:16:45 PM 38.9139 -84.2219 353° North 273 314 22,000  Climbing Indianapolis Center
Sat 05:17:46 PM 39.0000 -84.2356 353° North 266 306 21,900 -49 Descending Indianapolis Center
Sat 05:18:48 PM 39.0742 -84.2472 353° North 265 305 21,900  Level Indianapolis Center
Sat 05:19:49 PM 39.1469 -84.2569 354° North 261 300 21,900  Level Indianapolis Center
Sat 05:20:50 PM 39.2242 -84.2706 352° North 275 316 21,900  Level Indianapolis Center
Sat 05:21:52 PM 39.2992 -84.2814 354° North 270 311 21,900  Level Indianapolis Center
Sat 05:22:53 PM 39.3731 -84.2911 354° North 265 305 21,900  Level Indianapolis Center
Sat 05:23:54 PM 39.4483 -84.3019 354° North 268 308 21,900  Level Indianapolis Center
Sat 05:24:56 PM 39.5214 -84.3147 352° North 265 305 21,900  Level Indianapolis Center
Sat 05:25:57 PM 39.5961 -84.3253 354° North 268 308 21,900  Level Indianapolis Center
Sat 05:26:59 PM 39.6683 -84.3428 349° North 262 302 21,900  Level Indianapolis Center
Sat 05:28:00 PM 39.7431 -84.3553 353° North 265 305 21,900 49 Level Indianapolis Center
Sat 05:29:01 PM 39.8169 -84.3683 352° North 265 305 22,000 49 Climbing Indianapolis Center
Sat 05:30:03 PM 39.8917 -84.3800 353° North 266 306 22,000  Level Indianapolis Center
Sat 05:31:04 PM 39.9664 -84.3869 356° North 267 307 22,000  Level Indianapolis Center
Sat 05:32:06 PM 40.0428 -84.4028 351° North 273 314 22,000  Level Indianapolis Center
Sat 05:33:07 PM 40.1192 -84.4042 359° North 273 314 22,000  Level Indianapolis Center
Sat 05:34:09 PM 40.2083 -84.4097 357° North 271 312 22,000  Level Indianapolis Center
Sat 05:35:10 PM 40.2858 -84.4097 360° North 275 316 22,000  Level Indianapolis Center
Sat 05:36:12 PM 40.3633 -84.4144 357° North 275 316 22,000  Level Indianapolis Center
Sat 05:37:13 PM 40.4414 -84.4186 358° North 277 319 22,000  Level Indianapolis Center
Sat 05:38:15 PM 40.5206 -84.4153 North 280 322 22,000  Level Indianapolis Center
Sat 05:39:16 PM 40.5994 -84.4158 360° North 281 323 22,000  Level Indianapolis Center
Sat 05:40:18 PM 40.6783 -84.4161 360° North 281 323 22,000  Level Indianapolis Center
Sat 05:41:19 PM 40.7578 -84.4153 360° North 283 326 22,000  Level Indianapolis Center
Sat 05:42:21 PM 40.8361 -84.4161 360° North 281 323 22,000  Level Indianapolis Center
Sat 05:42:46 PM 40.8761 -84.4169 359° North 271 312 22,000  Level Cleveland Center
Sat 05:43:46 PM 40.9508 -84.4242 356° North 271 312 22,000 -100 Level Cleveland Center
Sat 05:44:46 PM 41.0300 -84.4261 359° North 271 312 21,800 -550 Descending Cleveland Center
Sat 05:45:46 PM 41.1094 -84.4278 359° North 271 312 20,900 -950 Descending Cleveland Center
Sat 05:46:46 PM 41.1903 -84.4356 356° North 276 318 19,900 -1,000 Descending Cleveland Center
Sat 05:47:46 PM 41.2675 -84.4344 North 276 318 18,900 -1,050 Descending Cleveland Center
Sat 05:48:46 PM 41.3433 -84.4114 13° North 276 318 17,800 -1,100 Descending Cleveland Center
Sat 05:49:46 PM 41.4194 -84.3797 17° North 276 318 16,700 -1,100 Descending Cleveland Center
Sat 05:50:46 PM 41.4914 -84.3508 17° North 281 323 15,600 -1,100 Descending Cleveland Center
Sat 05:51:46 PM 41.5633 -84.3217 17° North 275 316 14,500 -1,100 Descending Cleveland Center
Sat 05:52:46 PM 41.6350 -84.2925 17° North 270 311 13,400 -1,071 Descending Cleveland Center
Sat 05:53:10 PM 41.6606 -84.2828 16° North 267 307 13,000 -1,397 Descending Cleveland Center
Sat 05:53:59 PM 41.7236 -84.2614 14° North 273 314 11,700 -1,375 Descending Cleveland Center
Sat 05:54:46 PM 41.7725 -84.2392 19° North 265 305 10,800 -1,552 Descending Cleveland Center
Sat 05:55:55 PM 41.8650 -84.2081 14° North 268 308 8,700 -1,750 Descending Cleveland Center
Sat 05:56:46 PM 41.9158 -84.1886 16° North 265 305 7,300 -1,522 Descending Cleveland Center
Sat 05:57:02 PM 41.9369 -84.1786 19° North 253 291 7,000 -257 Descending Cleveland Center
Sat 05:57:56 PM 41.9858 -84.1453 27° Northeast 214 246 7,000 -470 Level Cleveland Center
Sat 05:58:57 PM 42.0275 -84.0775 50° Northeast 231 266 6,100 -984 Descending Cleveland Center
Sat 05:59:58 PM 42.0656 -83.9928 59° Northeast 264 304 5,000 -934 Descending Cleveland Center
Sat 06:00:59 PM 42.0992 -83.9192 58° Northeast 227 261 4,200 -492 Descending Cleveland Center
Sat 06:02:00 PM 42.1303 -83.8508 58° Northeast 211 243 4,000 -94 Descending Cleveland Center
Sat 06:03:07 PM 42.1694 -83.7883 50° Northeast 218 251 4,000  Level Cleveland Center
Sat 06:04:08 PM 42.2175 -83.7150 48° Northeast 240 276 4,000  Level Cleveland Center
Sat 06:05:08 PM 42.2608 -83.6525 47° Northeast 225 259 4,000 -793 Level Cleveland Center
Sat 06:06:09 PM 42.2817 -83.5750 70° East 222 255 2,400 -1,219 Descending Cleveland Center
Sat 06:07:16 PM 42.2581 -83.5150 118° Southeast 125 144 1,400 -896 Descending Cleveland Center

Login

Don't have an account? Register now (free) for customized features, flight alerts, and more!